Time;durP1;ratioP1;P1;durP2;ratioP2;P2;SDS_P1;SDS_P2;PMS_P1;PMS_P2;Temp;Humidity;BMP_temperature;BMP_pressure;BME280_temperature;BME280_humidity;BME280_pressure;Samples;Min_cycle;Max_cycle;Signal;HPM_P1;HPM_P2
2021/07/06 00:00:09;;;;;;;3.77;2.80;;;;;;;18.22;84.49;96239.41;5098122;28;20191;-56
2021/07/06 00:02:35;;;;;;;3.10;2.90;;;;;;;18.25;84.26;96236.94;5113252;28;20267;-54
2021/07/06 00:05:00;;;;;;;4.63;3.40;;;;;;;18.29;83.77;96239.78;5103634;28;20650;-55
2021/07/06 00:07:26;;;;;;;5.73;3.47;;;;;;;18.24;84.46;96229.25;5098205;28;20644;-57
2021/07/06 00:09:52;;;;;;;3.10;2.93;;;;;;;18.18;84.61;96231.19;5110202;28;20187;-54
2021/07/06 00:12:18;;;;;;;3.77;3.37;;;;;;;18.18;84.38;96228.56;5102280;28;20264;-59
2021/07/06 00:14:45;;;;;;;3.40;3.20;;;;;;;18.17;84.53;96234.13;5109396;28;20188;-53
2021/07/06 00:17:13;;;;;;;3.23;3.03;;;;;;;18.14;84.66;96222.25;5097919;28;20176;-51
2021/07/06 00:19:39;;;;;;;3.30;3.10;;;;;;;17.98;85.58;96220.09;5104493;28;20494;-55
2021/07/06 00:22:05;;;;;;;3.17;2.97;;;;;;;18.06;85.06;96227.41;5105647;28;20207;-54
2021/07/06 00:24:31;;;;;;;3.43;3.13;;;;;;;17.99;85.53;96229.66;5109565;28;20187;-52
2021/07/06 00:26:57;;;;;;;3.10;2.90;;;;;;;18.07;84.76;96221.81;5094516;28;20204;-55
2021/07/06 00:29:22;;;;;;;3.27;3.07;;;;;;;18.03;85.13;96220.03;5098726;28;20191;-58
2021/07/06 00:31:48;;;;;;;2.97;2.77;;;;;;;18.06;85.09;96222.88;5104828;28;20263;-55
2021/07/06 00:34:13;;;;;;;3.10;2.90;;;;;;;18.12;84.52;96213.78;5100073;28;20188;-60
2021/07/06 00:36:39;;;;;;;3.30;3.10;;;;;;;18.16;84.47;96208.72;5107513;28;20172;-56
2021/07/06 00:39:05;;;;;;;2.90;2.70;;;;;;;18.04;84.96;96208.34;5108075;28;20687;-55
2021/07/06 00:41:33;;;;;;;3.07;2.90;;;;;;;17.97;85.72;96199.97;5105140;28;20272;-55
2021/07/06 00:43:59;;;;;;;2.93;2.83;;;;;;;17.96;85.42;96198.38;5093412;28;20172;-54
2021/07/06 00:46:24;;;;;;;3.10;2.90;;;;;;;17.86;85.92;96202.78;5106339;28;20241;-52
2021/07/06 00:48:50;;;;;;;3.30;3.10;;;;;;;17.95;85.67;96197.59;5105853;28;20181;-55
2021/07/06 00:51:15;;;;;;;4.90;3.23;;;;;;;17.86;86.10;96202.78;5105380;28;20207;-54
2021/07/06 00:53:41;;;;;;;5.13;3.30;;;;;;;17.88;86.09;96193.75;5099438;28;20172;-56
2021/07/06 00:56:06;;;;;;;3.70;3.00;;;;;;;18.00;85.08;96196.75;5097289;28;20677;-54
2021/07/06 00:58:31;;;;;;;3.50;3.30;;;;;;;17.78;86.38;96187.50;5107993;28;20264;-58
2021/07/06 01:00:57;;;;;;;3.50;3.20;;;;;;;17.64;87.37;96189.28;5112644;28;20188;-55
2021/07/06 01:03:23;;;;;;;3.10;2.87;;;;;;;17.70;87.55;96182.84;5097300;28;20183;-60
2021/07/06 01:05:49;;;;;;;3.50;3.30;;;;;;;17.53;88.31;96171.13;5110408;28;20241;-56
2021/07/06 01:08:15;;;;;;;3.27;3.03;;;;;;;17.58;88.26;96171.84;5111169;28;20213;-55
2021/07/06 01:10:40;;;;;;;3.70;3.40;;;;;;;17.56;87.94;96165.25;5103097;28;20251;-56
2021/07/06 01:13:06;;;;;;;3.23;3.00;;;;;;;17.60;87.91;96172.38;5104718;28;20267;-54
2021/07/06 01:15:33;;;;;;;3.40;3.10;;;;;;;17.48;88.59;96160.59;5095786;28;20197;-55
2021/07/06 01:18:06;;;;;;;3.30;3.10;;;;;;;17.49;88.64;96170.13;5108422;28;20733;-55
2021/07/06 01:20:33;;;;;;;3.10;2.90;;;;;;;17.45;88.68;96164.59;5098887;28;20176;-55
2021/07/06 01:23:00;;;;;;;2.97;2.80;;;;;;;17.46;88.39;96169.59;5085653;28;20245;-54
2021/07/06 01:25:25;;;;;;;3.50;3.20;;;;;;;17.41;88.74;96161.72;5096493;28;20180;-57
2021/07/06 01:27:51;;;;;;;3.13;2.93;;;;;;;17.43;88.54;96161.47;5099374;28;20204;-53
2021/07/06 01:30:18;;;;;;;3.23;2.90;;;;;;;17.42;88.79;96158.00;5104508;28;20228;-56
2021/07/06 01:32:46;;;;;;;3.00;2.80;;;;;;;17.42;88.75;96154.56;5106029;28;20175;-56
2021/07/06 01:35:13;;;;;;;3.20;2.80;;;;;;;17.35;89.31;96157.56;5100005;28;20172;-52
2021/07/06 01:37:53;;;;;;;2.77;2.67;;;;;;;17.44;88.51;96152.44;5090417;28;20192;-54
2021/07/06 01:40:21;;;;;;;2.77;2.67;;;;;;;17.45;88.30;96149.47;5097736;28;20243;-53
2021/07/06 01:42:49;;;;;;;3.27;3.07;;;;;;;17.41;88.67;96147.69;5092600;28;20214;-55
2021/07/06 01:45:16;;;;;;;3.37;3.07;;;;;;;17.51;88.07;96144.09;5090495;28;20191;-53
2021/07/06 01:47:44;;;;;;;3.00;2.80;;;;;;;17.63;87.54;96150.59;5098570;28;20350;-54
2021/07/06 01:50:17;;;;;;;2.97;2.77;;;;;;;17.57;87.67;96151.72;5104649;28;20282;-55
2021/07/06 01:52:44;;;;;;;3.03;2.83;;;;;;;17.72;86.95;96153.41;5094396;28;20195;-54
2021/07/06 01:55:12;;;;;;;2.97;2.77;;;;;;;17.67;86.70;96141.00;5103349;28;20675;-51
2021/07/06 01:57:39;;;;;;;3.40;3.10;;;;;;;17.67;86.66;96146.28;5102230;28;20188;-51
2021/07/06 02:00:07;;;;;;;3.10;2.90;;;;;;;17.59;86.97;96136.31;5101333;28;20294;-54
2021/07/06 02:02:32;;;;;;;3.10;2.90;;;;;;;17.59;86.86;96135.53;5105013;28;20602;-56
2021/07/06 02:05:16;;;;;;;3.43;3.13;;;;;;;17.51;87.42;96131.66;5104603;28;20224;-55
2021/07/06 02:07:42;;;;;;;3.07;2.77;;;;;;;17.43;87.84;96122.50;5100530;28;20211;-56
2021/07/06 02:10:09;;;;;;;3.37;3.17;;;;;;;17.54;87.07;96122.34;5091976;28;20668;-56
2021/07/06 02:12:36;;;;;;;3.40;3.20;;;;;;;17.43;87.61;96124.38;5098303;28;20530;-54
2021/07/06 02:15:05;;;;;;;3.77;3.47;;;;;;;17.43;87.76;96125.16;5100257;28;20591;-57
2021/07/06 02:17:31;;;;;;;2.77;2.67;;;;;;;17.50;87.22;96114.16;5098024;28;20276;-55
2021/07/06 02:19:56;;;;;;;3.67;3.40;;;;;;;17.52;87.01;96119.19;5100302;28;20205;-56
2021/07/06 02:22:22;;;;;;;3.27;2.97;;;;;;;17.51;86.67;96122.91;5103123;28;20185;-58
2021/07/06 02:24:48;;;;;;;3.97;3.67;;;;;;;17.44;87.02;96110.03;5092776;28;20574;-55
2021/07/06 02:27:13;;;;;;;2.83;2.63;;;;;;;17.41;86.89;96114.03;5098252;28;20561;-55
2021/07/06 02:29:39;;;;;;;3.10;2.90;;;;;;;17.44;86.63;96102.84;5105228;28;20179;-56
2021/07/06 02:32:05;;;;;;;2.77;2.57;;;;;;;17.30;87.28;96101.22;5101099;28;20548;-57
2021/07/06 02:34:30;;;;;;;2.90;2.70;;;;;;;17.35;86.75;96103.78;5106869;28;20220;-56
2021/07/06 02:36:56;;;;;;;3.00;2.80;;;;;;;17.33;86.75;96100.66;5106921;28;20203;-55
2021/07/06 02:39:21;;;;;;;2.70;2.50;;;;;;;17.50;85.79;96100.16;5106140;28;20585;-56
2021/07/06 02:41:47;;;;;;;2.87;2.67;;;;;;;17.46;85.09;96105.22;5097302;28;20672;-54
2021/07/06 02:44:13;;;;;;;2.30;2.20;;;;;;;17.52;84.77;96106.75;5107278;28;20644;-53
2021/07/06 02:46:38;;;;;;;2.40;2.30;;;;;;;17.57;84.11;96097.91;5111909;28;20275;-57
2021/07/06 02:49:04;;;;;;;2.50;2.33;;;;;;;17.59;83.83;96098.44;5094174;28;20527;-54
2021/07/06 02:51:29;;;;;;;2.63;2.43;;;;;;;17.70;83.27;96108.63;5104809;28;20177;-55
2021/07/06 02:53:54;;;;;;;3.10;2.80;;;;;;;17.57;84.13;96108.53;5099321;28;20238;-57
2021/07/06 02:56:20;;;;;;;2.50;2.30;;;;;;;17.59;83.98;96106.38;5099392;28;20648;-54
2021/07/06 02:58:45;;;;;;;2.53;2.33;;;;;;;17.53;84.63;96100.38;5098842;28;20176;-55
2021/07/06 03:01:11;;;;;;;2.67;2.47;;;;;;;17.42;85.61;96105.03;5099887;28;20186;-58
2021/07/06 03:03:36;;;;;;;3.60;3.30;;;;;;;17.55;84.56;96100.88;5101243;28;20184;-56
2021/07/06 03:06:02;;;;;;;3.20;3.00;;;;;;;17.44;84.98;96105.50;5096787;28;20225;-52
2021/07/06 03:08:30;;;;;;;2.97;2.77;;;;;;;17.35;85.10;96112.53;5106553;28;20211;-58
2021/07/06 03:10:56;;;;;;;2.93;2.70;;;;;;;17.42;84.65;96117.47;5108842;28;20275;-55
2021/07/06 03:13:21;;;;;;;3.03;2.83;;;;;;;17.21;85.74;96106.38;5102438;28;20264;-56
2021/07/06 03:15:47;;;;;;;3.13;2.93;;;;;;;17.30;85.28;96111.81;5098440;28;20247;-57
2021/07/06 03:18:12;;;;;;;6.40;2.93;;;;;;;17.38;84.40;96101.38;5101301;28;20192;-54
2021/07/06 03:20:38;;;;;;;2.80;2.60;;;;;;;17.27;84.88;96099.16;5099607;28;20267;-54
2021/07/06 03:23:04;;;;;;;2.93;2.73;;;;;;;17.20;85.24;96104.00;5107720;28;20169;-53
2021/07/06 03:25:30;;;;;;;2.90;2.70;;;;;;;17.18;85.10;96096.34;5104457;28;20191;-56
2021/07/06 03:27:57;;;;;;;2.70;2.50;;;;;;;17.21;84.84;96101.09;5111763;28;20554;-53
2021/07/06 03:30:25;;;;;;;2.73;2.60;;;;;;;17.28;84.78;96106.00;5101430;28;20195;-52
2021/07/06 03:32:53;;;;;;;2.60;2.40;;;;;;;17.25;84.72;96091.47;5102415;28;20176;-55
2021/07/06 03:35:19;;;;;;;2.97;2.77;;;;;;;17.17;84.98;96084.16;5112330;28;20275;-56
2021/07/06 03:37:44;;;;;;;2.40;2.30;;;;;;;17.31;84.24;96078.97;5103917;28;20177;-54
2021/07/06 03:40:11;;;;;;;2.53;2.43;;;;;;;17.35;84.52;96078.09;5109655;28;20307;-56
2021/07/06 03:42:37;;;;;;;2.40;2.30;;;;;;;17.60;83.39;96074.34;5101532;28;20183;-53
2021/07/06 03:45:05;;;;;;;2.53;2.30;;;;;;;17.81;81.84;96072.16;5101045;28;20193;-55
2021/07/06 03:47:30;;;;;;;2.70;2.13;;;;;;;18.01;80.93;96069.16;5100495;28;20560;-56
2021/07/06 03:49:56;;;;;;;2.67;2.17;;;;;;;18.15;79.90;96061.22;5093413;28;20181;-56
2021/07/06 03:52:21;;;;;;;2.23;2.13;;;;;;;18.39;78.58;96061.09;5102383;28;20180;-54
2021/07/06 03:54:46;;;;;;;2.17;2.00;;;;;;;18.56;77.81;96058.63;5101434;28;20184;-56
2021/07/06 03:57:12;;;;;;;2.37;1.90;;;;;;;18.94;76.45;96057.38;5099523;28;20219;-56
2021/07/06 03:59:37;;;;;;;2.00;1.80;;;;;;;19.15;75.02;96052.41;5108430;28;20180;-55
2021/07/06 04:02:03;;;;;;;1.80;1.70;;;;;;;19.45;73.32;96045.63;5109025;28;20176;-57
2021/07/06 04:04:28;;;;;;;2.00;1.90;;;;;;;19.77;72.03;96044.66;5107894;28;20196;-61
2021/07/06 04:06:54;;;;;;;1.88;1.77;;;;;;;19.83;71.41;96046.88;5103350;28;20326;-54
2021/07/06 04:09:19;;;;;;;2.65;1.83;;;;;;;20.14;70.36;96049.56;5107837;28;20216;-54
2021/07/06 04:11:44;;;;;;;1.50;1.40;;;;;;;20.43;69.03;96048.31;5093517;28;20528;-55
2021/07/06 04:14:10;;;;;;;1.73;1.63;;;;;;;20.64;68.11;96041.34;5105485;28;20187;-55
2021/07/06 04:16:39;;;;;;;1.60;1.50;;;;;;;20.89;66.69;96045.19;5096450;28;20633;-57
2021/07/06 04:19:08;;;;;;;2.22;1.40;;;;;;;21.09;66.18;96049.91;5104820;28;20184;-55
2021/07/06 04:21:35;;;;;;;5.50;1.60;;;;;;;21.24;65.66;96054.81;5101259;28;20299;-55
2021/07/06 04:24:01;;;;;;;1.60;1.50;;;;;;;21.37;64.52;96055.78;5095064;28;20203;-56
2021/07/06 04:26:26;;;;;;;3.65;1.45;;;;;;;21.56;64.05;96050.94;5108631;28;20637;-61
2021/07/06 04:28:52;;;;;;;1.70;1.50;;;;;;;21.69;63.69;96049.19;5094232;28;20269;-54
2021/07/06 04:31:17;;;;;;;1.60;1.50;;;;;;;21.84;63.15;96049.50;5095577;28;20245;-54
2021/07/06 04:33:42;;;;;;;2.20;1.20;;;;;;;21.93;62.36;96044.13;5112106;28;20238;-52
2021/07/06 04:36:08;;;;;;;1.80;1.70;;;;;;;22.00;62.35;96035.69;5103943;28;20186;-56
2021/07/06 04:38:33;;;;;;;1.77;1.20;;;;;;;21.78;63.26;96031.31;5111777;28;20311;-55
2021/07/06 04:40:58;;;;;;;1.08;1.08;;;;;;;21.75;62.93;96026.59;5109591;28;20180;-55
2021/07/06 04:43:24;;;;;;;1.17;1.17;;;;;;;21.60;63.28;96025.19;5100507;28;20184;-55
2021/07/06 04:45:49;;;;;;;1.17;1.17;;;;;;;21.36;64.61;96033.66;5101796;28;20291;-56
2021/07/06 04:48:15;;;;;;;1.10;1.10;;;;;;;21.70;63.33;96035.53;5106252;28;20196;-54
2021/07/06 04:50:40;;;;;;;1.30;1.20;;;;;;;22.13;61.99;96032.81;5095053;28;20699;-58
2021/07/06 04:53:07;;;;;;;1.10;1.10;;;;;;;22.57;60.47;96026.19;5108453;28;20181;-54
2021/07/06 04:55:32;;;;;;;1.08;1.05;;;;;;;22.73;59.75;96019.28;5099697;28;20622;-57
2021/07/06 04:57:58;;;;;;;1.02;1.02;;;;;;;22.77;59.77;96020.19;5101926;28;20276;-55
2021/07/06 05:00:23;;;;;;;1.33;1.00;;;;;;;23.02;59.45;96012.31;5094907;28;20271;-55
2021/07/06 05:02:49;;;;;;;1.15;1.15;;;;;;;23.39;58.06;96026.69;5091657;28;20262;-55
2021/07/06 05:05:15;;;;;;;0.90;0.90;;;;;;;23.62;57.38;96027.94;5097571;28;20188;-57
2021/07/06 05:07:41;;;;;;;1.15;1.08;;;;;;;23.53;56.96;96032.56;5090291;28;20694;-54
2021/07/06 05:10:10;;;;;;;1.13;1.10;;;;;;;23.69;56.31;96038.09;5093538;28;20315;-57
2021/07/06 05:12:35;;;;;;;1.50;1.42;;;;;;;23.55;56.86;96047.22;5100068;28;20671;-56
2021/07/06 05:15:02;;;;;;;1.75;1.10;;;;;;;23.32;57.81;96035.22;5100457;28;20176;-54
2021/07/06 05:17:28;;;;;;;1.05;1.05;;;;;;;22.47;60.84;96023.91;5090851;28;20192;-60
2021/07/06 05:19:53;;;;;;;1.38;1.25;;;;;;;22.05;62.42;96030.19;5091507;28;20222;-54
2021/07/06 05:22:19;;;;;;;3.60;1.30;;;;;;;21.63;63.95;96031.78;5107371;28;20559;-57
2021/07/06 05:24:44;;;;;;;2.13;1.42;;;;;;;21.23;65.94;96031.94;5101709;28;20546;-55
2021/07/06 05:27:10;;;;;;;2.60;1.35;;;;;;;21.12;66.59;96026.09;5091507;28;20615;-55
2021/07/06 05:29:35;;;;;;;1.35;1.23;;;;;;;21.17;66.94;96016.41;5107085;28;20190;-58
2021/07/06 05:32:02;;;;;;;1.40;1.10;;;;;;;21.27;66.92;96014.22;5095861;28;20180;-54
2021/07/06 05:34:27;;;;;;;1.42;1.30;;;;;;;21.69;65.54;96009.97;5103816;28;20205;-56
2021/07/06 05:36:53;;;;;;;1.33;1.30;;;;;;;22.12;64.06;95998.44;5101947;28;20704;-55
2021/07/06 05:39:19;;;;;;;1.92;1.27;;;;;;;22.42;62.48;96005.38;5103170;28;20235;-53
2021/07/06 05:41:45;;;;;;;1.58;1.08;;;;;;;22.57;61.01;96002.16;5109197;28;20200;-50
2021/07/06 05:44:12;;;;;;;0.98;0.88;;;;;;;22.75;60.74;96000.22;5098719;28;20234;-58
2021/07/06 05:46:37;;;;;;;2.08;1.10;;;;;;;23.06;60.02;96015.91;5091583;28;20215;-55
2021/07/06 05:49:04;;;;;;;1.02;1.02;;;;;;;23.39;59.73;96019.47;5095636;28;20204;-56
2021/07/06 05:51:29;;;;;;;0.80;0.80;;;;;;;23.77;57.85;96023.88;5108395;28;20194;-60
2021/07/06 05:53:54;;;;;;;0.93;0.93;;;;;;;24.11;57.04;96022.75;5097248;28;20192;-57
2021/07/06 05:56:20;;;;;;;0.80;0.80;;;;;;;24.29;55.43;96024.94;5099856;28;20179;-56
2021/07/06 05:58:47;;;;;;;0.93;0.93;;;;;;;24.24;55.54;96022.44;5094042;28;20196;-54
2021/07/06 06:01:13;;;;;;;1.50;1.00;;;;;;;24.26;54.63;96024.81;5097135;28;20220;-57
2021/07/06 06:03:38;;;;;;;0.90;0.90;;;;;;;24.52;55.08;96027.94;5099677;28;20614;-58
2021/07/06 06:06:04;;;;;;;1.58;1.10;;;;;;;24.67;55.13;96032.69;5100129;28;20210;-65
2021/07/06 06:08:29;;;;;;;0.88;0.88;;;;;;;24.89;54.99;96028.00;5106700;28;20687;-62
2021/07/06 06:10:55;;;;;;;0.85;0.80;;;;;;;25.24;54.09;96034.44;5108405;28;20233;-60
2021/07/06 06:13:20;;;;;;;1.10;1.00;;;;;;;25.51;53.09;96039.06;5099318;28;20587;-61
2021/07/06 06:15:46;;;;;;;2.38;1.00;;;;;;;25.74;52.44;96052.78;5091619;28;20687;-60
2021/07/06 06:18:11;;;;;;;0.73;0.73;;;;;;;25.88;51.86;96055.84;5100490;28;20185;-60
2021/07/06 06:20:37;;;;;;;0.75;0.75;;;;;;;25.77;51.15;96054.75;5100123;28;20196;-59
2021/07/06 06:23:04;;;;;;;0.90;0.90;;;;;;;25.67;51.52;96053.34;5092252;28;20211;-59
2021/07/06 06:25:29;;;;;;;1.65;0.80;;;;;;;25.90;50.73;96050.13;5098417;28;20195;-59
2021/07/06 06:27:55;;;;;;;1.52;0.95;;;;;;;25.98;50.29;96035.75;5100194;28;20205;-59
2021/07/06 06:30:21;;;;;;;0.82;0.82;;;;;;;26.33;49.83;96036.72;5104187;28;20192;-59
2021/07/06 06:32:46;;;;;;;0.98;0.98;;;;;;;26.66;49.21;96040.97;5095290;28;20184;-60
2021/07/06 06:35:12;;;;;;;1.65;1.05;;;;;;;26.86;48.49;96035.28;5091065;28;20188;-57
2021/07/06 06:37:38;;;;;;;1.05;1.00;;;;;;;26.94;48.02;96036.28;5102324;28;20196;-60
2021/07/06 06:40:06;;;;;;;1.10;1.00;;;;;;;27.03;47.70;96031.47;5101375;28;20697;-60
2021/07/06 06:42:31;;;;;;;1.10;1.00;;;;;;;26.98;47.84;96025.59;5091942;28;20206;-61
2021/07/06 06:44:56;;;;;;;1.65;0.90;;;;;;;26.82;48.78;96023.69;5091640;28;20184;-58
2021/07/06 06:47:22;;;;;;;1.00;0.93;;;;;;;26.79;49.00;96019.03;5091631;28;20200;-59
2021/07/06 06:49:47;;;;;;;0.82;0.82;;;;;;;26.64;49.11;96027.09;5092418;28;20189;-59
2021/07/06 06:52:13;;;;;;;1.02;0.93;;;;;;;26.58;49.43;96039.25;5104157;28;20213;-57
2021/07/06 06:54:38;;;;;;;1.05;1.00;;;;;;;26.37;50.06;96051.00;5093361;28;20199;-61
2021/07/06 06:57:04;;;;;;;1.23;1.13;;;;;;;26.15;50.62;96061.53;5100577;28;20204;-59
2021/07/06 06:59:30;;;;;;;1.17;0.90;;;;;;;26.26;50.51;96055.34;5094813;28;20551;-57
2021/07/06 07:04:39;;;;;;;2.33;1.10;;;;;;;26.42;50.63;96060.72;5087474;28;20196;-58
2021/07/06 07:07:06;;;;;;;2.67;1.00;;;;;;;26.41;51.15;96070.72;5100047;28;20668;-59
2021/07/06 07:09:31;;;;;;;0.95;0.90;;;;;;;26.35;51.36;96074.78;5098750;28;20191;-60
2021/07/06 07:11:56;;;;;;;0.90;0.90;;;;;;;26.53;50.88;96072.53;5091834;28;20226;-58
2021/07/06 07:14:22;;;;;;;0.90;0.90;;;;;;;26.77;50.02;96061.59;5090171;28;20237;-56
2021/07/06 07:16:48;;;;;;;6.78;0.85;;;;;;;27.08;48.48;96055.44;5105144;28;20691;-55
2021/07/06 07:19:13;;;;;;;0.80;0.80;;;;;;;27.28;48.13;96054.34;5105699;28;20176;-52
2021/07/06 07:21:39;;;;;;;1.10;1.10;;;;;;;27.42;47.38;96055.81;5106045;28;20558;-56
2021/07/06 07:24:04;;;;;;;0.80;0.80;;;;;;;27.15;48.27;96052.91;5109103;28;20263;-56
2021/07/06 07:26:30;;;;;;;0.85;0.82;;;;;;;27.17;47.98;96049.88;5097727;28;20184;-54
2021/07/06 07:28:55;;;;;;;0.65;0.65;;;;;;;27.43;47.06;96046.56;5101489;28;20661;-54
2021/07/06 07:31:21;;;;;;;0.70;0.70;;;;;;;27.41;47.86;96063.09;5108724;28;20272;-58
2021/07/06 07:33:46;;;;;;;0.70;0.70;;;;;;;27.22;48.10;96052.28;5092092;28;20208;-53
2021/07/06 07:36:12;;;;;;;0.90;0.85;;;;;;;27.24;48.11;96044.66;5101359;28;20180;-57
2021/07/06 07:38:37;;;;;;;0.70;0.70;;;;;;;27.41;47.83;96048.84;5098725;28;20216;-55
2021/07/06 07:41:03;;;;;;;0.70;0.70;;;;;;;27.35;47.15;96045.66;5104730;28;20196;-56
2021/07/06 07:43:28;;;;;;;0.80;0.80;;;;;;;27.20;47.51;96049.16;5096900;28;20219;-56
2021/07/06 07:45:54;;;;;;;1.65;1.17;;;;;;;27.26;47.30;96055.81;5103571;28;20285;-59
2021/07/06 07:48:19;;;;;;;0.70;0.70;;;;;;;27.62;47.01;96044.72;5113041;28;20207;-55
2021/07/06 07:50:44;;;;;;;1.60;0.77;;;;;;;27.88;46.51;96054.84;5095198;28;20199;-57
2021/07/06 07:53:10;;;;;;;1.23;1.20;;;;;;;28.00;45.99;96053.91;5110945;28;20227;-56
2021/07/06 07:55:35;;;;;;;1.23;1.13;;;;;;;28.09;46.09;96043.66;5098725;28;20183;-59
2021/07/06 07:58:01;;;;;;;1.63;0.70;;;;;;;28.36;45.78;96050.75;5103789;28;20521;-56
2021/07/06 08:00:26;;;;;;;0.80;0.80;;;;;;;28.25;44.95;96041.72;5092481;28;20271;-55
2021/07/06 08:02:51;;;;;;;0.82;0.82;;;;;;;28.45;45.30;96031.63;5099868;28;20791;-57
2021/07/06 08:05:18;;;;;;;0.88;0.88;;;;;;;28.42;45.04;96029.69;5110611;28;20180;-58
2021/07/06 08:07:44;;;;;;;0.80;0.80;;;;;;;28.35;46.10;96032.25;5100533;28;20200;-57
2021/07/06 08:10:09;;;;;;;1.17;0.80;;;;;;;28.49;45.47;96035.16;5095710;28;20656;-57
2021/07/06 08:12:35;;;;;;;0.77;0.77;;;;;;;28.67;45.26;96028.16;5102177;28;20188;-62
2021/07/06 08:15:02;;;;;;;0.70;0.70;;;;;;;28.61;45.23;96028.81;5102357;28;20288;-55
2021/07/06 08:17:27;;;;;;;1.42;0.90;;;;;;;28.34;45.63;96028.75;5092110;28;20645;-57
2021/07/06 08:19:59;;;;;;;0.88;0.60;;;;;;;28.25;46.49;96036.31;5109790;28;20218;-55
2021/07/06 08:22:24;;;;;;;0.98;0.98;;;;;;;28.18;47.77;96036.19;5063367;28;20208;-57
2021/07/06 08:24:50;;;;;;;1.00;0.88;;;;;;;28.23;47.82;96030.50;5105603;28;20212;-57
2021/07/06 08:27:16;;;;;;;0.90;0.90;;;;;;;28.14;47.86;96035.34;5107282;28;20229;-56
2021/07/06 08:29:41;;;;;;;0.70;0.70;;;;;;;28.58;45.62;96043.81;5105230;28;20275;-55
2021/07/06 08:32:07;;;;;;;0.80;0.80;;;;;;;28.53;45.37;96055.66;5101037;28;20251;-57
2021/07/06 08:34:32;;;;;;;0.70;0.70;;;;;;;28.86;44.79;96079.38;5105142;28;20192;-60
2021/07/06 08:36:58;;;;;;;2.15;0.73;;;;;;;28.83;45.45;96079.28;5098732;28;20188;-56
2021/07/06 08:39:23;;;;;;;1.50;0.70;;;;;;;28.92;44.75;96093.34;5093505;28;20235;-52
2021/07/06 08:41:48;;;;;;;0.98;0.77;;;;;;;29.25;44.48;96101.56;5096822;28;20189;-55
2021/07/06 08:44:15;;;;;;;0.70;0.70;;;;;;;29.45;43.78;96109.56;5094724;28;20180;-58
2021/07/06 08:46:41;;;;;;;0.80;0.80;;;;;;;29.45;44.07;96112.28;5103417;28;20189;-55
2021/07/06 08:49:06;;;;;;;0.77;0.77;;;;;;;29.64;44.96;96134.56;5098835;28;20180;-55
2021/07/06 08:51:34;;;;;;;0.50;0.50;;;;;;;29.69;43.15;96141.56;5104729;28;20267;-61
2021/07/06 08:54:01;;;;;;;1.23;0.80;;;;;;;29.44;43.54;96143.91;5099003;28;20250;-57
2021/07/06 08:56:26;;;;;;;0.70;0.70;;;;;;;29.40;43.29;96148.47;5094560;28;20572;-57
2021/07/06 08:58:52;;;;;;;1.90;0.70;;;;;;;29.19;43.61;96154.31;5098875;28;20323;-55
2021/07/06 09:01:26;;;;;;;0.70;0.70;;;;;;;29.14;43.45;96154.63;5094475;28;20645;-56
2021/07/06 09:03:57;;;;;;;0.70;0.65;;;;;;;29.19;43.83;96169.72;5081529;28;20168;-56
2021/07/06 09:06:25;;;;;;;0.77;0.77;;;;;;;29.51;43.89;96173.72;5103987;28;20272;-56
2021/07/06 09:08:52;;;;;;;0.60;0.60;;;;;;;30.12;42.85;96192.34;5098535;28;20212;-58
2021/07/06 09:11:21;;;;;;;0.60;0.60;;;;;;;30.44;41.25;96190.03;5100878;28;20609;-57
2021/07/06 09:13:47;;;;;;;0.80;0.80;;;;;;;30.59;41.06;96193.72;5103509;28;20543;-56
2021/07/06 09:16:22;;;;;;;1.75;0.60;;;;;;;30.54;41.06;96197.50;5090516;28;20176;-57
2021/07/06 09:18:49;;;;;;;0.60;0.60;;;;;;;30.52;41.24;96204.44;5085197;28;20192;-56
2021/07/06 09:21:14;;;;;;;0.70;0.70;;;;;;;30.14;41.38;96214.41;5101891;28;20184;-57
2021/07/06 09:23:42;;;;;;;0.70;0.70;;;;;;;29.94;42.22;96207.56;5106256;28;20188;-59
2021/07/06 09:26:14;;;;;;;1.42;0.80;;;;;;;29.55;42.53;96220.47;5110350;28;20180;-56
2021/07/06 09:28:53;;;;;;;1.23;1.23;;;;;;;29.43;43.00;96230.69;5105432;28;20292;-56
2021/07/06 09:31:37;;;;;;;3.08;0.70;;;;;;;28.71;44.65;96234.00;5106884;28;20175;-62
2021/07/06 09:34:11;;;;;;;0.75;0.75;;;;;;;27.88;46.86;96256.91;5105238;28;20179;-58
2021/07/06 09:36:45;;;;;;;1.70;1.00;;;;;;;26.99;50.12;96267.38;5096420;28;20251;-58
2021/07/06 09:39:16;;;;;;;1.10;1.10;;;;;;;24.49;58.10;96269.00;5105162;28;20311;-56
2021/07/06 09:41:52;;;;;;;1.10;1.10;;;;;;;23.86;60.52;96278.88;5105912;28;20230;-57
2021/07/06 09:44:21;;;;;;;1.10;1.10;;;;;;;24.13;60.43;96291.00;5100180;28;20219;-57
2021/07/06 09:46:52;;;;;;;1.58;1.00;;;;;;;24.29;59.95;96292.81;5103208;28;20179;-58
2021/07/06 09:49:20;;;;;;;0.98;0.98;;;;;;;23.83;61.22;96301.72;5103909;28;20199;-57
2021/07/06 09:51:47;;;;;;;1.13;1.13;;;;;;;23.88;60.81;96304.22;5093429;28;20638;-60
2021/07/06 09:54:29;;;;;;;0.80;0.80;;;;;;;23.91;60.80;96303.56;5100669;28;20656;-57
2021/07/06 09:57:13;;;;;;;1.13;0.98;;;;;;;24.04;60.90;96296.41;5107288;28;20245;-60
2021/07/06 09:59:54;;;;;;;1.30;0.65;;;;;;;24.72;57.47;96275.59;5081879;28;20184;-58
2021/07/06 10:02:21;;;;;;;0.77;0.60;;;;;;;24.95;55.72;96262.63;5097994;28;20179;-57
2021/07/06 10:04:50;;;;;;;1.90;0.70;;;;;;;25.01;55.05;96266.69;5107619;28;20192;-57
2021/07/06 10:07:16;;;;;;;0.57;0.57;;;;;;;25.18;54.43;96277.22;5096189;28;20598;-60
2021/07/06 10:09:41;;;;;;;0.50;0.50;;;;;;;25.48;53.37;96273.22;5099010;28;20196;-56
2021/07/06 10:12:08;;;;;;;0.52;0.52;;;;;;;25.02;54.57;96260.97;5108047;28;20176;-59
2021/07/06 10:14:34;;;;;;;1.75;0.77;;;;;;;24.73;55.52;96269.91;5094353;28;20195;-60
2021/07/06 10:16:59;;;;;;;0.70;0.70;;;;;;;25.15;54.10;96267.94;5105658;28;20181;-58
2021/07/06 10:19:25;;;;;;;0.40;0.40;;;;;;;25.27;53.67;96276.00;5094095;28;20179;-57
2021/07/06 10:21:51;;;;;;;0.60;0.60;;;;;;;25.38;53.58;96270.97;5102737;28;20650;-58
2021/07/06 10:24:19;;;;;;;0.60;0.60;;;;;;;26.02;52.23;96268.44;5097559;28;20189;-55
2021/07/06 10:26:46;;;;;;;1.45;0.40;;;;;;;26.40;51.29;96251.94;5101031;28;20229;-53
2021/07/06 10:29:12;;;;;;;1.08;0.50;;;;;;;26.46;50.81;96255.94;5101723;28;20176;-56
2021/07/06 10:31:42;;;;;;;0.60;0.60;;;;;;;25.19;53.69;96273.41;5092473;28;20544;-58
2021/07/06 10:34:21;;;;;;;0.70;0.70;;;;;;;25.27;54.59;96267.16;5107930;28;20583;-55
2021/07/06 10:36:47;;;;;;;0.60;0.60;;;;;;;25.53;53.45;96277.59;5104795;28;20649;-57
2021/07/06 10:39:13;;;;;;;0.45;0.45;;;;;;;24.96;54.96;96273.03;5100963;28;20254;-55
2021/07/06 10:41:38;;;;;;;0.40;0.40;;;;;;;24.49;56.79;96260.97;5107293;28;20641;-58
2021/07/06 10:44:06;;;;;;;1.00;0.50;;;;;;;24.69;56.98;96252.13;5089967;28;20184;-58
2021/07/06 10:46:37;;;;;;;0.50;0.50;;;;;;;24.54;57.12;96242.81;5082215;28;20662;-62
2021/07/06 10:49:04;;;;;;;0.90;0.55;;;;;;;24.95;56.29;96233.94;5093383;28;20682;-58
2021/07/06 10:51:36;;;;;;;0.40;0.40;;;;;;;25.13;55.83;96219.19;5107020;28;20345;-58
2021/07/06 10:54:38;;;;;;;1.10;0.50;;;;;;;25.55;55.14;96227.03;5107107;28;20667;-58
2021/07/06 10:57:06;;;;;;;0.57;0.57;;;;;;;25.18;54.89;96250.41;5102177;28;20628;-59
2021/07/06 10:59:35;;;;;;;0.50;0.50;;;;;;;24.41;57.77;96251.88;5079977;28;20252;-60
2021/07/06 11:02:03;;;;;;;0.50;0.50;;;;;;;24.03;59.61;96238.59;5104095;28;20267;-57
2021/07/06 11:07:05;;;;;;;0.95;0.70;;;;;;;25.89;54.16;96256.16;5099967;28;20226;-55
2021/07/06 11:09:36;;;;;;;0.55;0.55;;;;;;;25.71;54.45;96272.81;5109298;28;20271;-60
2021/07/06 11:12:25;;;;;;;0.60;0.60;;;;;;;24.71;56.87;96279.38;5107052;28;20259;-58
2021/07/06 11:14:53;;;;;;;0.73;0.73;;;;;;;24.67;58.01;96268.53;5098584;28;20743;-59
2021/07/06 11:17:34;;;;;;;0.50;0.50;;;;;;;24.46;58.62;96256.28;5104190;28;20194;-58
2021/07/06 11:20:17;;;;;;;2.17;0.70;;;;;;;25.22;56.91;96254.75;5095889;28;20176;-60
2021/07/06 11:22:51;;;;;;;0.65;0.65;;;;;;;25.84;54.05;96264.44;5097071;28;20172;-57
2021/07/06 11:25:21;;;;;;;0.60;0.60;;;;;;;26.22;53.61;96268.63;5097716;28;20550;-58
2021/07/06 11:27:55;;;;;;;0.40;0.40;;;;;;;27.10;51.65;96256.88;5092263;28;20204;-57
2021/07/06 11:30:29;;;;;;;0.60;0.60;;;;;;;27.35;50.37;96254.84;5100237;28;20276;-60
2021/07/06 11:33:04;;;;;;;0.88;0.60;;;;;;;27.46;50.16;96263.94;5089099;28;20175;-56
2021/07/06 11:35:37;;;;;;;0.50;0.50;;;;;;;27.49;50.21;96257.84;5099406;28;20184;-54
2021/07/06 11:38:08;;;;;;;0.50;0.50;;;;;;;28.11;48.27;96265.88;5092413;28;20183;-56